createdAt,value
2022-12-05T00:00:35.385Z,17.90
2022-12-05T00:02:38.471Z,16.67
2022-12-05T00:04:44.157Z,16.77
2022-12-05T00:06:47.180Z,17.25
2022-12-05T00:08:50.487Z,16.70
2022-12-05T00:10:53.484Z,17.45
2022-12-05T00:12:56.529Z,17.58
2022-12-05T00:14:59.580Z,15.88
2022-12-05T00:17:02.730Z,15.70
2022-12-05T00:19:07.002Z,16.17
2022-12-05T00:21:16.337Z,14.93
2022-12-05T00:23:19.246Z,18.08
2022-12-05T00:25:22.250Z,15.88
2022-12-05T00:27:25.198Z,16.88
2022-12-05T00:29:28.169Z,17.08
2022-12-05T00:31:31.261Z,16.23
2022-12-05T00:33:34.397Z,16.35
2022-12-05T00:35:37.389Z,16.38
2022-12-05T00:37:41.714Z,17.42
2022-12-05T00:39:44.857Z,17.13
2022-12-05T00:41:47.805Z,16.23
2022-12-05T00:43:51.330Z,16.08
2022-12-05T00:45:54.381Z,15.75
2022-12-05T00:47:57.376Z,16.77
2022-12-05T00:50:00.550Z,17.83
2022-12-05T00:52:03.597Z,17.65
2022-12-05T00:54:10.740Z,16.23
2022-12-05T00:56:16.759Z,16.50
2022-12-05T00:58:19.764Z,15.55
2022-12-05T01:00:22.754Z,16.70
2022-12-05T01:02:25.795Z,15.70
2022-12-05T01:04:28.863Z,16.00
2022-12-05T01:06:32.885Z,16.13
2022-12-05T01:08:36.721Z,15.70
2022-12-05T01:10:41.006Z,16.27
2022-12-05T01:12:44.162Z,15.45
2022-12-05T01:14:47.198Z,15.10
2022-12-05T01:16:51.759Z,14.80
2022-12-05T01:18:55.232Z,14.48
2022-12-05T01:20:58.466Z,14.15
2022-12-05T01:23:01.564Z,14.52
2022-12-05T01:25:05.186Z,15.35
2022-12-05T01:27:09.594Z,14.32
2022-12-05T01:29:15.087Z,14.88
2022-12-05T01:31:20.270Z,14.70
2022-12-05T01:33:23.206Z,14.57
2022-12-05T01:35:26.162Z,14.40
2022-12-05T01:37:29.145Z,15.20
2022-12-05T01:39:32.097Z,13.85
2022-12-05T01:41:38.236Z,13.98
2022-12-05T01:44:02.826Z,14.05
2022-12-05T01:46:07.157Z,14.45
2022-12-05T01:48:13.741Z,14.88
2022-12-05T01:50:16.653Z,14.68
2022-12-05T01:52:22.855Z,13.73
2022-12-05T01:54:25.971Z,13.32
2022-12-05T01:56:29.005Z,13.40
2022-12-05T01:58:37.324Z,14.00
2022-12-05T02:00:41.759Z,14.65
2022-12-05T02:02:47.912Z,13.40
2022-12-05T02:04:56.116Z,14.60
2022-12-05T02:06:59.151Z,14.85
2022-12-05T02:09:02.419Z,13.57
2022-12-05T02:11:07.894Z,13.68
2022-12-05T02:13:26.686Z,14.07
2022-12-05T02:15:38.049Z,14.98
2022-12-05T02:17:50.395Z,14.52
2022-12-05T02:20:04.522Z,15.00
2022-12-05T02:22:39.227Z,13.23
2022-12-05T02:25:10.405Z,12.65
2022-12-05T02:27:33.259Z,12.93
2022-12-05T02:30:11.807Z,13.40
2022-12-05T02:32:19.410Z,13.40
2022-12-05T02:34:27.915Z,13.70
2022-12-05T02:36:36.424Z,14.05
2022-12-05T02:38:43.133Z,13.63
2022-12-05T02:40:53.022Z,14.10
2022-12-05T02:43:00.996Z,13.23
2022-12-05T02:45:09.815Z,13.20
2022-12-05T02:47:16.411Z,13.02
2022-12-05T02:49:22.773Z,13.25
2022-12-05T02:51:29.252Z,12.63
2022-12-05T02:53:32.689Z,12.80
2022-12-05T02:55:36.683Z,14.75
2022-12-05T02:57:39.994Z,12.80
2022-12-05T02:59:43.018Z,12.93
2022-12-05T03:01:47.603Z,14.20
2022-12-05T03:03:52.430Z,13.65
2022-12-05T03:06:01.206Z,13.10
2022-12-05T03:08:05.925Z,12.73
2022-12-05T03:10:09.541Z,12.10
2022-12-05T03:12:17.150Z,13.05
2022-12-05T03:14:22.883Z,12.70
2022-12-05T03:16:30.401Z,12.35
2022-12-05T03:18:36.613Z,13.85
2022-12-05T03:20:45.577Z,12.45
2022-12-05T03:22:51.150Z,12.15
2022-12-05T03:24:54.756Z,12.38
2022-12-05T03:27:03.264Z,10.90
2022-12-05T03:29:18.962Z,12.20
2022-12-05T03:31:34.515Z,10.98
2022-12-05T03:33:42.793Z,10.93
2022-12-05T03:35:50.789Z,11.40
2022-12-05T03:37:58.336Z,10.90
2022-12-05T03:40:07.460Z,13.27
2022-12-05T03:42:14.010Z,11.95
2022-12-05T03:44:20.328Z,12.57
2022-12-05T03:46:26.033Z,13.13
2022-12-05T03:48:31.742Z,11.70
2022-12-05T03:50:36.375Z,11.88
2022-12-05T03:53:17.519Z,12.40
2022-12-05T03:55:10.085Z,11.38
2022-12-05T03:57:16.473Z,12.43
2022-12-05T03:59:22.652Z,11.70
2022-12-05T04:01:28.469Z,10.90
2022-12-05T04:03:39.692Z,12.43
2022-12-05T04:05:46.129Z,11.88
2022-12-05T04:07:53.959Z,11.35
2022-12-05T04:10:00.413Z,11.32
2022-12-05T04:12:06.026Z,11.05
2022-12-05T04:14:11.894Z,11.95
2022-12-05T04:16:36.006Z,11.15
2022-12-05T04:18:43.253Z,11.23
2022-12-05T04:21:03.898Z,11.60
2022-12-05T04:23:08.969Z,11.52
2022-12-05T04:25:31.445Z,11.27
2022-12-05T04:27:40.215Z,11.20
2022-12-05T04:29:47.651Z,11.50
2022-12-05T04:31:54.472Z,11.13
2022-12-05T04:34:01.335Z,11.82
2022-12-05T04:36:09.091Z,10.95
2022-12-05T04:38:16.495Z,12.20
2022-12-05T04:40:21.463Z,11.02
2022-12-05T04:42:27.555Z,11.43
2022-12-05T04:44:32.988Z,11.23
2022-12-05T04:46:36.914Z,10.65
2022-12-05T04:48:41.089Z,10.20
2022-12-05T04:50:46.226Z,10.50
2022-12-05T04:52:51.867Z,12.07
2022-12-05T04:54:59.003Z,11.32
2022-12-05T04:57:06.307Z,11.93
2022-12-05T04:59:09.276Z,11.57
2022-12-05T05:01:15.775Z,11.10
2022-12-05T05:03:23.076Z,10.30
2022-12-05T05:05:26.603Z,10.77
2022-12-05T05:07:30.041Z,11.25
2022-12-05T05:09:33.112Z,11.00
2022-12-05T05:11:37.707Z,11.32
2022-12-05T05:13:40.685Z,10.50
2022-12-05T05:15:43.722Z,11.52
2022-12-05T05:17:46.664Z,10.15
2022-12-05T05:19:49.737Z,10.88
2022-12-05T05:21:53.249Z,11.13
2022-12-05T05:23:56.672Z,10.48
2022-12-05T05:25:59.781Z,10.35
2022-12-05T05:28:04.289Z,10.48
2022-12-05T05:30:08.634Z,10.88
2022-12-05T05:32:11.956Z,10.57
2022-12-05T05:34:16.923Z,11.07
2022-12-05T05:36:20.574Z,10.65
2022-12-05T05:38:23.640Z,10.95
2022-12-05T05:40:26.723Z,10.65
2022-12-05T05:42:29.712Z,11.82
2022-12-05T05:44:34.180Z,12.25
2022-12-05T05:46:37.421Z,11.43
2022-12-05T05:48:40.816Z,11.70
2022-12-05T05:50:43.798Z,11.77
2022-12-05T05:52:47.429Z,11.45
2022-12-05T05:54:50.365Z,10.57
2022-12-05T05:56:53.391Z,11.05
2022-12-05T05:58:58.332Z,11.02
2022-12-05T06:01:05.466Z,12.60
2022-12-05T06:03:09.508Z,11.93
2022-12-05T06:05:12.571Z,11.57
2022-12-05T06:07:15.624Z,11.88
2022-12-05T06:09:18.558Z,11.45
2022-12-05T06:11:26.181Z,10.48
2022-12-05T06:13:29.638Z,11.70
2022-12-05T06:15:32.561Z,12.25
2022-12-05T06:17:37.071Z,11.32
2022-12-05T06:19:40.095Z,11.88
2022-12-05T06:21:43.115Z,11.63
2022-12-05T06:23:46.323Z,11.65
2022-12-05T06:25:49.968Z,12.20
2022-12-05T06:27:52.951Z,12.45
2022-12-05T06:29:56.119Z,12.02
2022-12-05T06:31:59.465Z,10.88
2022-12-05T06:34:05.407Z,12.48
2022-12-05T06:36:10.654Z,12.43
2022-12-05T06:38:13.637Z,11.65
2022-12-05T06:40:16.720Z,10.60
2022-12-05T06:42:22.208Z,10.80
2022-12-05T06:44:26.941Z,11.30
2022-12-05T06:46:30.040Z,10.43
2022-12-05T06:48:33.087Z,10.60
2022-12-05T06:50:37.457Z,11.00
2022-12-05T06:52:40.430Z,10.20
2022-12-05T06:54:43.404Z,9.55
2022-12-05T06:56:46.389Z,10.85
2022-12-05T06:58:52.433Z,12.20
2022-12-05T07:01:13.601Z,10.80
2022-12-05T07:03:16.621Z,10.55
2022-12-05T07:05:19.802Z,13.23
2022-12-05T07:07:24.133Z,11.15
2022-12-05T07:09:45.982Z,11.63
2022-12-05T07:11:49.385Z,12.18
2022-12-05T07:13:52.411Z,11.80
2022-12-05T07:15:55.338Z,15.68
2022-12-05T07:17:58.332Z,14.65
2022-12-05T07:20:01.412Z,13.07
2022-12-05T07:22:04.774Z,11.82
2022-12-05T07:24:09.180Z,11.55
2022-12-05T07:26:13.589Z,10.82
2022-12-05T07:28:16.551Z,10.82
2022-12-05T07:30:19.685Z,11.00
2022-12-05T07:32:22.702Z,10.45
2022-12-05T07:34:26.307Z,13.30
2022-12-05T07:36:29.411Z,11.77
2022-12-05T07:38:32.443Z,10.75
2022-12-05T07:40:38.616Z,10.98
2022-12-05T07:42:41.645Z,11.35
2022-12-05T07:44:44.676Z,12.40
2022-12-05T07:46:47.730Z,10.57
2022-12-05T07:48:52.343Z,10.52
2022-12-05T07:50:55.250Z,11.43
2022-12-05T07:52:58.204Z,12.45
2022-12-05T07:55:01.255Z,11.93
2022-12-05T07:57:05.753Z,12.35
2022-12-05T07:59:08.725Z,12.77
2022-12-05T08:01:13.380Z,12.82
2022-12-05T08:03:16.465Z,12.63
2022-12-05T08:05:20.469Z,12.52
2022-12-05T08:07:23.612Z,12.77
2022-12-05T08:09:27.625Z,12.90
2022-12-05T08:11:35.264Z,13.75
2022-12-05T08:13:39.641Z,13.55
2022-12-05T08:15:42.759Z,13.85
2022-12-05T08:17:45.815Z,14.43
2022-12-05T08:19:48.823Z,14.32
2022-12-05T08:21:52.449Z,13.27
2022-12-05T08:23:55.832Z,12.18
2022-12-05T08:26:03.125Z,13.55
2022-12-05T08:28:06.393Z,11.35
2022-12-05T08:30:11.224Z,11.30
2022-12-05T08:32:14.233Z,10.80
2022-12-05T08:34:19.912Z,11.95
2022-12-05T08:36:22.951Z,46.42
2022-12-05T08:38:26.144Z,24.10
2022-12-05T08:40:29.153Z,18.58
2022-12-05T08:42:32.650Z,16.85
2022-12-05T08:44:35.802Z,17.13
2022-12-05T08:46:40.289Z,13.77
2022-12-05T08:48:43.418Z,12.32
2022-12-05T08:50:46.455Z,11.15
2022-12-05T08:52:49.483Z,12.80
2022-12-05T08:54:53.038Z,12.43
2022-12-05T08:56:56.127Z,11.13
2022-12-05T08:59:05.274Z,12.13
2022-12-05T09:01:11.000Z,11.90
2022-12-05T09:03:15.720Z,12.13
2022-12-05T09:05:28.269Z,12.40
2022-12-05T09:07:31.971Z,12.32
2022-12-05T09:09:35.426Z,12.13
2022-12-05T09:11:40.845Z,12.48
2022-12-05T09:13:44.329Z,12.90
2022-12-05T09:15:47.535Z,12.80
2022-12-05T09:17:50.564Z,11.75
2022-12-05T09:19:55.021Z,12.73
2022-12-05T09:21:58.308Z,14.25
2022-12-05T09:24:01.924Z,20.70
2022-12-05T09:26:05.317Z,39.95
2022-12-05T09:28:08.269Z,27.50
2022-12-05T09:30:12.082Z,31.67
2022-12-05T09:32:15.051Z,17.67
2022-12-05T09:34:20.112Z,13.00
2022-12-05T09:36:26.627Z,14.05
2022-12-05T09:38:29.969Z,13.60
2022-12-05T09:40:33.206Z,11.63
2022-12-05T09:42:41.495Z,12.63
2022-12-05T09:45:00.438Z,11.77
2022-12-05T09:47:08.437Z,12.43
2022-12-05T09:49:12.596Z,11.77
2022-12-05T09:51:15.722Z,12.13
2022-12-05T09:53:27.297Z,12.93
2022-12-05T09:55:36.864Z,10.75
2022-12-05T09:57:44.417Z,10.63
2022-12-05T09:59:47.586Z,10.57
2022-12-05T10:01:56.856Z,11.23
2022-12-05T10:04:18.046Z,10.98
2022-12-05T10:06:25.190Z,11.15
2022-12-05T10:08:33.163Z,12.77
2022-12-05T10:10:46.402Z,40.67
2022-12-05T10:13:00.645Z,67.78
2022-12-05T10:15:09.782Z,12.55
2022-12-05T10:17:18.072Z,10.98
2022-12-05T10:19:26.663Z,13.05
2022-12-05T10:21:32.645Z,13.05
2022-12-05T10:23:57.165Z,11.60
2022-12-05T10:26:04.599Z,11.73
2022-12-05T10:28:13.812Z,11.70
2022-12-05T10:30:19.119Z,10.90
2022-12-05T10:32:26.961Z,10.82
2022-12-05T10:34:33.324Z,11.82
2022-12-05T10:36:36.380Z,10.90
2022-12-05T10:38:42.070Z,11.95
2022-12-05T10:40:47.589Z,12.18
2022-12-05T10:42:51.550Z,10.52
2022-12-05T10:44:58.760Z,11.50
2022-12-05T10:47:02.814Z,10.70
2022-12-05T10:49:11.124Z,11.02
2022-12-05T10:51:15.963Z,11.15
2022-12-05T10:53:22.578Z,15.50
2022-12-05T10:55:31.108Z,11.40
2022-12-05T10:57:34.188Z,10.90
2022-12-05T10:59:47.109Z,10.95
2022-12-05T11:01:52.860Z,12.00
2022-12-05T11:03:58.434Z,10.15
2022-12-05T11:06:03.154Z,11.80
2022-12-05T11:08:06.922Z,10.73
2022-12-05T11:10:26.666Z,10.88
2022-12-05T11:12:38.074Z,10.75
2022-12-05T11:14:41.337Z,11.57
2022-12-05T11:16:53.659Z,11.20
2022-12-05T11:18:56.725Z,12.10
2022-12-05T11:21:11.036Z,11.57
2022-12-05T11:23:24.427Z,11.80
2022-12-05T11:25:33.779Z,12.73
2022-12-05T11:27:38.180Z,11.20
2022-12-05T11:29:41.278Z,11.05
2022-12-05T11:31:52.290Z,12.18
2022-12-05T11:34:16.068Z,10.32
2022-12-05T11:36:21.089Z,10.35
2022-12-05T11:38:28.277Z,10.70
2022-12-05T11:40:38.629Z,11.50
2022-12-05T11:42:57.650Z,10.60
2022-12-05T11:45:11.550Z,11.82
2022-12-05T11:47:21.051Z,12.32
2022-12-05T11:49:41.299Z,12.50
2022-12-05T11:51:50.441Z,11.02
2022-12-05T11:54:13.430Z,10.50
2022-12-05T11:56:25.573Z,10.73
2022-12-05T11:58:49.346Z,11.23
2022-12-05T12:01:03.264Z,10.95
2022-12-05T12:03:32.575Z,10.95
2022-12-05T12:05:40.165Z,12.05
2022-12-05T12:07:58.357Z,12.07
2022-12-05T12:10:10.440Z,10.60
2022-12-05T12:12:19.900Z,11.48
2022-12-05T12:14:30.895Z,10.52
2022-12-05T12:16:37.914Z,10.77
2022-12-05T12:18:56.099Z,10.98
2022-12-05T12:21:06.786Z,10.35
2022-12-05T12:23:21.594Z,12.93
2022-12-05T12:25:37.382Z,11.43
2022-12-05T12:27:47.988Z,11.50
2022-12-05T12:29:59.926Z,11.20
2022-12-05T12:32:13.595Z,11.35
2022-12-05T12:34:37.324Z,10.20
2022-12-05T12:36:47.333Z,10.00
2022-12-05T12:39:08.759Z,10.98
2022-12-05T12:41:19.168Z,11.48
2022-12-05T12:43:53.069Z,10.38
2022-12-05T12:46:13.235Z,9.95
2022-12-05T12:48:29.343Z,11.07
2022-12-05T12:50:36.516Z,10.55
2022-12-05T12:52:55.001Z,10.70
2022-12-05T12:55:12.357Z,10.80
2022-12-05T12:57:23.958Z,12.00
2022-12-05T12:59:51.377Z,11.65
2022-12-05T13:01:59.496Z,10.52
2022-12-05T13:04:09.468Z,10.35
2022-12-05T13:06:16.290Z,11.18
2022-12-05T13:08:24.760Z,10.70
2022-12-05T13:10:33.015Z,10.25
2022-12-05T13:12:39.250Z,11.40
2022-12-05T13:14:47.282Z,11.10
2022-12-05T13:16:53.105Z,10.80
2022-12-05T13:18:57.967Z,10.60
2022-12-05T13:21:04.655Z,10.52
2022-12-05T13:23:09.197Z,10.90
2022-12-05T13:25:15.822Z,11.20
2022-12-05T13:27:20.181Z,10.68
2022-12-05T13:29:28.190Z,10.05
2022-12-05T13:31:39.119Z,9.82
2022-12-05T13:33:45.232Z,11.02
2022-12-05T13:36:06.897Z,10.35
2022-12-05T13:38:40.108Z,9.73
2022-12-05T13:41:09.117Z,9.48
2022-12-05T13:43:13.020Z,9.68
2022-12-05T13:45:18.580Z,11.80
2022-12-05T13:47:29.414Z,10.57
2022-12-05T13:49:37.674Z,10.07
2022-12-05T13:51:44.308Z,10.70
2022-12-05T13:53:49.548Z,11.60
2022-12-05T13:55:58.363Z,12.85
2022-12-05T13:58:02.068Z,12.85
2022-12-05T14:00:07.497Z,11.85
2022-12-05T14:02:51.233Z,10.88
2022-12-05T14:04:54.332Z,11.00
2022-12-05T14:06:59.433Z,11.00
2022-12-05T14:09:03.181Z,10.75
2022-12-05T14:11:11.474Z,13.98
2022-12-05T14:13:42.509Z,12.10
2022-12-05T14:15:46.534Z,11.25
2022-12-05T14:17:50.212Z,10.77
2022-12-05T14:20:06.134Z,10.70
2022-12-05T14:22:28.151Z,10.60
2022-12-05T14:24:34.500Z,10.30
2022-12-05T14:26:47.934Z,11.30
2022-12-05T14:29:01.950Z,11.18
2022-12-05T14:31:18.449Z,10.45
2022-12-05T14:33:23.640Z,12.40
2022-12-05T14:35:30.244Z,11.32
2022-12-05T14:37:37.748Z,11.85
2022-12-05T14:39:43.716Z,11.35
2022-12-05T14:41:47.588Z,12.32
2022-12-05T14:43:53.880Z,11.38
2022-12-05T14:46:03.536Z,11.30
2022-12-05T14:48:08.042Z,12.15
2022-12-05T14:50:35.492Z,11.77
2022-12-05T14:52:41.117Z,10.85
2022-12-05T14:54:44.827Z,10.85
2022-12-05T14:56:50.955Z,11.55
2022-12-05T14:58:57.427Z,13.02
2022-12-05T15:01:02.271Z,13.70
2022-12-05T15:03:06.238Z,12.88
2022-12-05T15:05:21.740Z,11.68
2022-12-05T15:07:34.250Z,12.40
2022-12-05T15:09:55.120Z,11.32
2022-12-05T15:11:58.728Z,11.88
2022-12-05T15:14:06.739Z,21.63
2022-12-05T15:16:16.709Z,11.30
2022-12-05T15:18:23.180Z,11.30
2022-12-05T15:20:34.371Z,12.20
2022-12-05T15:22:41.642Z,11.50
2022-12-05T15:24:46.604Z,13.25
2022-12-05T15:26:51.886Z,11.05
2022-12-05T15:29:03.643Z,11.35
2022-12-05T15:31:08.111Z,12.95
2022-12-05T15:33:12.947Z,11.10
2022-12-05T15:35:16.922Z,10.20
2022-12-05T15:37:22.354Z,11.13
2022-12-05T15:39:28.687Z,12.30
2022-12-05T15:41:33.196Z,11.45
2022-12-05T15:43:37.418Z,13.23
2022-12-05T15:45:40.655Z,13.90
2022-12-05T15:47:45.978Z,14.88
2022-12-05T15:49:49.043Z,12.70
2022-12-05T15:51:54.983Z,10.48
2022-12-05T15:54:01.844Z,13.00
2022-12-05T15:56:07.104Z,11.65
2022-12-05T15:58:16.891Z,11.80
2022-12-05T16:00:22.211Z,11.20
2022-12-05T16:02:30.310Z,11.80
2022-12-05T16:04:36.805Z,11.35
2022-12-05T16:06:42.308Z,10.80
2022-12-05T16:08:46.477Z,12.18
2022-12-05T16:10:49.683Z,10.95
2022-12-05T16:12:53.560Z,11.00
2022-12-05T16:15:01.726Z,16.98
2022-12-05T16:17:06.599Z,12.90
2022-12-05T16:19:15.751Z,10.60
2022-12-05T16:21:38.849Z,11.95
2022-12-05T16:23:44.043Z,10.80
2022-12-05T16:25:47.167Z,12.32
2022-12-05T16:27:58.342Z,11.60
2022-12-05T16:30:10.996Z,10.50
2022-12-05T16:32:19.908Z,11.63
2022-12-05T16:34:23.042Z,9.63
2022-12-05T16:36:26.139Z,11.95
2022-12-05T16:38:30.001Z,9.60
2022-12-05T16:40:33.146Z,12.20
2022-12-05T16:42:37.394Z,10.93
2022-12-05T16:45:04.661Z,10.80
2022-12-05T16:47:19.139Z,11.45
2022-12-05T16:49:42.808Z,14.50
2022-12-05T16:51:56.321Z,11.30
2022-12-05T16:53:59.868Z,10.52
2022-12-05T16:56:05.347Z,10.40
2022-12-05T16:58:13.282Z,11.75
2022-12-05T17:00:17.040Z,11.38
2022-12-05T17:02:21.619Z,16.45
2022-12-05T17:04:24.837Z,16.50
2022-12-05T17:06:28.106Z,15.70
2022-12-05T17:08:31.360Z,12.32
2022-12-05T17:10:35.150Z,12.30
2022-12-05T17:12:39.458Z,11.85
2022-12-05T17:14:44.347Z,11.50
2022-12-05T17:16:48.124Z,15.05
2022-12-05T17:18:53.037Z,14.48
2022-12-05T17:20:57.344Z,17.27
2022-12-05T17:23:01.033Z,17.52
2022-12-05T17:25:04.364Z,17.35
2022-12-05T17:27:07.626Z,14.88
2022-12-05T17:29:11.576Z,12.30
2022-12-05T17:31:17.124Z,11.70
2022-12-05T17:33:23.560Z,11.93
2022-12-05T17:35:30.672Z,11.68
2022-12-05T17:37:33.811Z,10.60
2022-12-05T17:39:36.960Z,11.90
2022-12-05T17:41:40.215Z,11.93
2022-12-05T17:43:43.686Z,11.65
2022-12-05T17:45:47.793Z,12.20
2022-12-05T17:47:51.238Z,12.35
2022-12-05T17:49:54.383Z,12.07
2022-12-05T17:52:21.049Z,11.40
2022-12-05T17:54:23.481Z,10.93
2022-12-05T17:56:27.378Z,12.75
2022-12-05T17:58:30.510Z,12.63
2022-12-05T18:00:33.822Z,11.60
2022-12-05T18:02:37.092Z,11.80
2022-12-05T18:04:40.099Z,11.82
2022-12-05T18:06:43.233Z,15.27
2022-12-05T18:08:47.739Z,15.73
2022-12-05T18:10:51.808Z,16.05
2022-12-05T18:12:55.412Z,15.88
2022-12-05T18:14:58.990Z,16.42
2022-12-05T18:17:02.547Z,16.75
2022-12-05T18:19:08.455Z,16.30
2022-12-05T18:21:13.380Z,19.13
2022-12-05T18:23:16.493Z,20.23
2022-12-05T18:25:21.396Z,20.08
2022-12-05T18:27:25.299Z,21.90
2022-12-05T18:29:28.472Z,17.92
2022-12-05T18:31:31.658Z,17.63
2022-12-05T18:33:36.423Z,18.63
2022-12-05T18:35:41.796Z,16.95
2022-12-05T18:37:44.808Z,17.52
2022-12-05T18:39:47.903Z,16.65
2022-12-05T18:41:52.377Z,15.20
2022-12-05T18:43:55.801Z,14.90
2022-12-05T18:46:00.000Z,15.65
2022-12-05T18:48:37.772Z,15.52
2022-12-05T18:50:26.625Z,16.10
2022-12-05T18:52:29.763Z,15.50
2022-12-05T18:54:32.911Z,14.52
2022-12-05T18:56:38.243Z,15.23
2022-12-05T18:58:42.668Z,18.13
2022-12-05T19:00:45.782Z,18.83
2022-12-05T19:02:49.710Z,20.10
2022-12-05T19:04:52.860Z,19.65
2022-12-05T19:06:57.707Z,16.70
2022-12-05T19:09:02.371Z,15.45
2022-12-05T19:11:05.695Z,15.25
2022-12-05T19:13:09.429Z,13.98
2022-12-05T19:15:13.914Z,13.32
2022-12-05T19:17:17.289Z,13.30
2022-12-05T19:19:21.182Z,13.60
2022-12-05T19:21:24.909Z,13.38
2022-12-05T19:23:28.597Z,12.90
2022-12-05T19:25:32.692Z,12.10
2022-12-05T19:27:36.286Z,14.40
2022-12-05T19:29:40.170Z,14.70
2022-12-05T19:31:45.707Z,15.85
2022-12-05T19:33:50.717Z,20.88
2022-12-05T19:35:53.791Z,16.02
2022-12-05T19:37:57.471Z,16.67
2022-12-05T19:40:00.691Z,18.05
2022-12-05T19:42:04.023Z,22.40
2022-12-05T19:44:07.313Z,21.40
2022-12-05T19:46:12.756Z,22.08
2022-12-05T19:48:22.654Z,16.48
2022-12-05T19:50:25.966Z,15.98
2022-12-05T19:52:31.448Z,17.92
2022-12-05T19:54:34.587Z,15.68
2022-12-05T19:56:38.130Z,16.48
2022-12-05T19:58:42.134Z,16.75
2022-12-05T20:00:45.564Z,15.38
2022-12-05T20:02:50.479Z,14.98
2022-12-05T20:04:55.075Z,14.98
2022-12-05T20:06:58.499Z,17.27
2022-12-05T20:09:01.995Z,15.60
2022-12-05T20:11:06.384Z,16.40
2022-12-05T20:13:38.542Z,15.75
2022-12-05T20:15:34.061Z,15.55
2022-12-05T20:17:37.146Z,16.58
2022-12-05T20:19:40.303Z,17.73
2022-12-05T20:21:44.972Z,38.50
2022-12-05T20:23:48.025Z,19.70
2022-12-05T20:25:51.141Z,19.98
2022-12-05T20:27:54.219Z,20.35
2022-12-05T20:29:57.534Z,26.52
2022-12-05T20:32:00.871Z,26.77
2022-12-05T20:34:04.598Z,20.65
2022-12-05T20:36:09.994Z,20.15
2022-12-05T20:38:14.830Z,19.52
2022-12-05T20:40:18.126Z,18.88
2022-12-05T20:42:21.238Z,21.08
2022-12-05T20:44:24.415Z,22.08
2022-12-05T20:46:28.372Z,20.92
2022-12-05T20:48:31.533Z,21.60
2022-12-05T20:50:35.622Z,22.52
2022-12-05T20:52:43.583Z,21.95
2022-12-05T20:54:52.179Z,20.58
2022-12-05T20:56:55.426Z,21.98
2022-12-05T20:59:00.172Z,21.15
2022-12-05T21:01:05.774Z,22.17
2022-12-05T21:03:12.846Z,21.10
2022-12-05T21:05:18.835Z,21.08
2022-12-05T21:07:21.890Z,22.55
2022-12-05T21:09:28.587Z,20.15
2022-12-05T21:11:33.311Z,21.80
2022-12-05T21:13:36.725Z,21.98
2022-12-05T21:15:39.952Z,19.15
2022-12-05T21:17:43.012Z,22.45
2022-12-05T21:19:46.454Z,23.42
2022-12-05T21:21:49.673Z,24.48
2022-12-05T21:23:54.730Z,24.10
2022-12-05T21:26:02.323Z,23.55
2022-12-05T21:28:06.807Z,21.08
2022-12-05T21:30:11.032Z,22.13
2022-12-05T21:32:14.024Z,23.13
2022-12-05T21:34:20.195Z,24.08
2022-12-05T21:36:24.103Z,21.95
2022-12-05T21:38:27.150Z,23.40
2022-12-05T21:40:30.179Z,23.83
2022-12-05T21:42:33.611Z,25.52
2022-12-05T21:44:38.537Z,30.05
2022-12-05T21:46:41.665Z,33.45
2022-12-05T21:48:45.263Z,35.17
2022-12-05T21:50:48.383Z,33.58
2022-12-05T21:52:51.926Z,22.70
2022-12-05T21:54:56.677Z,23.17
2022-12-05T21:56:59.752Z,21.75
2022-12-05T21:59:03.237Z,21.63
2022-12-05T22:01:08.522Z,21.42
2022-12-05T22:03:14.863Z,20.10
2022-12-05T22:05:18.836Z,21.23
2022-12-05T22:07:22.126Z,19.75
2022-12-05T22:09:25.187Z,19.85
2022-12-05T22:11:28.439Z,20.58
2022-12-05T22:13:31.933Z,19.75
2022-12-05T22:15:35.077Z,21.70
2022-12-05T22:17:39.749Z,23.05
2022-12-05T22:19:43.289Z,23.13
2022-12-05T22:21:46.324Z,19.38
2022-12-05T22:23:50.825Z,18.13
2022-12-05T22:25:58.645Z,18.17
2022-12-05T22:28:01.724Z,20.27
2022-12-05T22:30:06.278Z,20.67
2022-12-05T22:32:10.500Z,20.52
2022-12-05T22:34:15.108Z,23.80
2022-12-05T22:36:19.408Z,23.83
2022-12-05T22:38:22.372Z,21.00
2022-12-05T22:40:25.580Z,20.38
2022-12-05T22:42:28.601Z,20.67
2022-12-05T22:44:31.721Z,19.85
2022-12-05T22:46:34.883Z,17.88
2022-12-05T22:48:37.997Z,18.23
2022-12-05T22:50:47.108Z,18.23
2022-12-05T22:52:50.160Z,17.60
2022-12-05T22:54:53.219Z,17.77
2022-12-05T22:56:56.225Z,15.75
2022-12-05T22:59:00.807Z,16.83
2022-12-05T23:01:11.145Z,16.83
2022-12-05T23:03:15.251Z,16.80
2022-12-05T23:05:18.610Z,16.40
2022-12-05T23:07:23.264Z,15.85
2022-12-05T23:09:27.013Z,15.50
2022-12-05T23:11:30.819Z,15.20
2022-12-05T23:13:35.495Z,15.68
2022-12-05T23:15:38.931Z,14.90
2022-12-05T23:17:42.930Z,15.02
2022-12-05T23:19:46.176Z,15.60
2022-12-05T23:21:49.185Z,15.32
2022-12-05T23:23:54.809Z,16.30
2022-12-05T23:25:58.060Z,16.20
2022-12-05T23:28:01.126Z,14.63
2022-12-05T23:30:04.356Z,16.85
2022-12-05T23:32:09.549Z,14.95
2022-12-05T23:34:13.132Z,20.88
2022-12-05T23:36:16.404Z,19.17
2022-12-05T23:38:19.367Z,17.17
2022-12-05T23:40:23.784Z,16.17
2022-12-05T23:42:27.105Z,14.98
2022-12-05T23:44:30.142Z,15.30
2022-12-05T23:46:33.285Z,14.98
2022-12-05T23:48:36.777Z,14.52
2022-12-05T23:50:39.844Z,16.70
2022-12-05T23:52:42.829Z,15.82
2022-12-05T23:54:46.076Z,15.13
2022-12-05T23:56:50.441Z,15.57
2022-12-05T23:58:54.676Z,15.48
